sensor_id;sensor_type;location;lat;lon;timestamp;P1;durP1;ratioP1;P2;durP2;ratioP2
14377;SDS011;7272;53.668;9.578;2024-03-23T00:55:09;12.83;;;4.70;;
14377;SDS011;7272;53.668;9.578;2024-03-23T00:58:10;13.27;;;4.77;;
14377;SDS011;7272;53.668;9.578;2024-03-23T01:01:11;15.97;;;4.63;;
14377;SDS011;7272;53.668;9.578;2024-03-23T01:04:12;14.30;;;4.10;;
14377;SDS011;7272;53.668;9.578;2024-03-23T01:07:13;14.57;;;5.20;;
14377;SDS011;7272;53.668;9.578;2024-03-23T01:10:15;16.13;;;5.13;;
14377;SDS011;7272;53.668;9.578;2024-03-23T01:13:17;17.03;;;5.07;;
14377;SDS011;7272;53.668;9.578;2024-03-23T01:16:21;18.27;;;4.47;;
14377;SDS011;7272;53.668;9.578;2024-03-23T01:19:23;18.50;;;5.53;;
14377;SDS011;7272;53.668;9.578;2024-03-23T01:22:24;16.27;;;4.63;;
14377;SDS011;7272;53.668;9.578;2024-03-23T01:25:27;16.33;;;4.97;;
14377;SDS011;7272;53.668;9.578;2024-03-23T01:28:27;12.47;;;4.70;;
14377;SDS011;7272;53.668;9.578;2024-03-23T01:31:29;13.80;;;4.70;;
14377;SDS011;7272;53.668;9.578;2024-03-23T01:34:30;11.60;;;4.67;;
14377;SDS011;7272;53.668;9.578;2024-03-23T01:37:31;13.17;;;4.73;;
14377;SDS011;7272;53.668;9.578;2024-03-23T01:40:32;12.07;;;4.13;;
14377;SDS011;7272;53.668;9.578;2024-03-23T01:43:34;14.57;;;4.73;;
14377;SDS011;7272;53.668;9.578;2024-03-23T01:46:35;11.30;;;3.73;;
14377;SDS011;7272;53.668;9.578;2024-03-23T01:49:37;12.33;;;4.50;;
14377;SDS011;7272;53.668;9.578;2024-03-23T01:52:38;8.40;;;3.33;;
14377;SDS011;7272;53.668;9.578;2024-03-23T01:55:40;15.80;;;4.20;;
14377;SDS011;7272;53.668;9.578;2024-03-23T01:58:41;15.33;;;4.40;;
14377;SDS011;7272;53.668;9.578;2024-03-23T02:01:42;11.00;;;3.93;;
14377;SDS011;7272;53.668;9.578;2024-03-23T02:04:43;16.27;;;4.27;;
14377;SDS011;7272;53.668;9.578;2024-03-23T02:07:45;10.93;;;4.63;;
14377;SDS011;7272;53.668;9.578;2024-03-23T02:10:46;8.83;;;3.60;;
14377;SDS011;7272;53.668;9.578;2024-03-23T02:13:48;13.37;;;4.17;;
14377;SDS011;7272;53.668;9.578;2024-03-23T02:16:49;12.53;;;4.50;;
14377;SDS011;7272;53.668;9.578;2024-03-23T02:19:50;12.00;;;3.93;;
14377;SDS011;7272;53.668;9.578;2024-03-23T02:22:53;16.60;;;5.03;;
14377;SDS011;7272;53.668;9.578;2024-03-23T02:25:54;11.57;;;3.97;;
14377;SDS011;7272;53.668;9.578;2024-03-23T02:28:55;13.57;;;4.47;;
14377;SDS011;7272;53.668;9.578;2024-03-23T02:31:56;16.10;;;4.47;;
14377;SDS011;7272;53.668;9.578;2024-03-23T02:34:59;12.20;;;4.13;;
14377;SDS011;7272;53.668;9.578;2024-03-23T02:38:00;15.10;;;4.10;;
14377;SDS011;7272;53.668;9.578;2024-03-23T02:41:02;14.37;;;3.70;;
14377;SDS011;7272;53.668;9.578;2024-03-23T02:44:04;15.90;;;4.77;;
14377;SDS011;7272;53.668;9.578;2024-03-23T02:47:05;8.97;;;3.40;;
14377;SDS011;7272;53.668;9.578;2024-03-23T02:50:07;11.77;;;4.20;;
14377;SDS011;7272;53.668;9.578;2024-03-23T02:53:09;13.03;;;4.70;;
14377;SDS011;7272;53.668;9.578;2024-03-23T02:56:11;15.67;;;5.00;;
14377;SDS011;7272;53.668;9.578;2024-03-23T02:59:16;12.33;;;4.50;;
14377;SDS011;7272;53.668;9.578;2024-03-23T03:02:17;12.63;;;3.20;;
14377;SDS011;7272;53.668;9.578;2024-03-23T03:05:18;12.00;;;4.03;;
14377;SDS011;7272;53.668;9.578;2024-03-23T03:08:20;12.93;;;4.10;;
14377;SDS011;7272;53.668;9.578;2024-03-23T03:11:21;15.63;;;4.57;;
14377;SDS011;7272;53.668;9.578;2024-03-23T03:14:22;12.77;;;4.63;;
14377;SDS011;7272;53.668;9.578;2024-03-23T03:17:23;15.07;;;4.43;;
14377;SDS011;7272;53.668;9.578;2024-03-23T03:20:24;13.23;;;4.27;;
14377;SDS011;7272;53.668;9.578;2024-03-23T03:23:26;11.93;;;4.00;;
14377;SDS011;7272;53.668;9.578;2024-03-23T03:26:27;14.23;;;3.37;;
14377;SDS011;7272;53.668;9.578;2024-03-23T03:29:28;16.07;;;4.67;;
14377;SDS011;7272;53.668;9.578;2024-03-23T03:32:35;15.63;;;4.90;;
14377;SDS011;7272;53.668;9.578;2024-03-23T03:35:37;12.90;;;4.10;;
14377;SDS011;7272;53.668;9.578;2024-03-23T03:38:38;15.80;;;5.13;;
14377;SDS011;7272;53.668;9.578;2024-03-23T03:41:39;14.50;;;4.83;;
14377;SDS011;7272;53.668;9.578;2024-03-23T03:44:41;14.37;;;4.07;;
14377;SDS011;7272;53.668;9.578;2024-03-23T03:47:42;15.97;;;4.37;;
14377;SDS011;7272;53.668;9.578;2024-03-23T03:50:43;14.43;;;4.33;;
14377;SDS011;7272;53.668;9.578;2024-03-23T03:53:45;12.03;;;4.13;;
14377;SDS011;7272;53.668;9.578;2024-03-23T03:56:46;10.63;;;3.80;;
14377;SDS011;7272;53.668;9.578;2024-03-23T03:59:48;17.07;;;4.63;;
14377;SDS011;7272;53.668;9.578;2024-03-23T04:02:49;13.50;;;3.97;;
14377;SDS011;7272;53.668;9.578;2024-03-23T04:05:51;12.03;;;3.70;;
14377;SDS011;7272;53.668;9.578;2024-03-23T04:08:53;12.63;;;3.90;;
14377;SDS011;7272;53.668;9.578;2024-03-23T04:11:54;12.80;;;4.43;;
14377;SDS011;7272;53.668;9.578;2024-03-23T04:14:55;12.27;;;4.67;;
14377;SDS011;7272;53.668;9.578;2024-03-23T04:17:57;12.70;;;4.00;;
14377;SDS011;7272;53.668;9.578;2024-03-23T04:20:58;11.97;;;4.00;;
14377;SDS011;7272;53.668;9.578;2024-03-23T04:23:59;15.77;;;4.37;;
14377;SDS011;7272;53.668;9.578;2024-03-23T04:27:00;14.33;;;4.43;;
14377;SDS011;7272;53.668;9.578;2024-03-23T04:30:02;14.90;;;5.10;;
14377;SDS011;7272;53.668;9.578;2024-03-23T04:33:05;13.90;;;4.57;;
14377;SDS011;7272;53.668;9.578;2024-03-23T04:36:06;13.43;;;3.70;;
14377;SDS011;7272;53.668;9.578;2024-03-23T04:39:08;13.67;;;4.33;;
14377;SDS011;7272;53.668;9.578;2024-03-23T04:42:09;12.57;;;3.90;;
14377;SDS011;7272;53.668;9.578;2024-03-23T04:45:10;13.73;;;4.03;;
14377;SDS011;7272;53.668;9.578;2024-03-23T04:48:12;11.33;;;4.20;;
14377;SDS011;7272;53.668;9.578;2024-03-23T04:51:19;12.20;;;3.93;;
14377;SDS011;7272;53.668;9.578;2024-03-23T04:54:22;14.77;;;4.13;;
14377;SDS011;7272;53.668;9.578;2024-03-23T04:57:23;12.43;;;3.83;;
14377;SDS011;7272;53.668;9.578;2024-03-23T05:00:25;11.90;;;3.80;;
14377;SDS011;7272;53.668;9.578;2024-03-23T05:03:26;16.23;;;4.70;;
14377;SDS011;7272;53.668;9.578;2024-03-23T05:06:27;13.80;;;4.27;;
14377;SDS011;7272;53.668;9.578;2024-03-23T05:09:29;14.60;;;4.60;;
14377;SDS011;7272;53.668;9.578;2024-03-23T05:12:31;14.87;;;4.27;;
14377;SDS011;7272;53.668;9.578;2024-03-23T05:15:32;11.10;;;3.47;;
14377;SDS011;7272;53.668;9.578;2024-03-23T05:18:33;16.67;;;4.47;;
14377;SDS011;7272;53.668;9.578;2024-03-23T05:21:34;14.50;;;4.30;;
14377;SDS011;7272;53.668;9.578;2024-03-23T05:24:36;16.13;;;4.37;;
14377;SDS011;7272;53.668;9.578;2024-03-23T05:27:38;12.07;;;4.33;;
14377;SDS011;7272;53.668;9.578;2024-03-23T05:30:39;12.63;;;4.27;;
14377;SDS011;7272;53.668;9.578;2024-03-23T05:33:40;13.37;;;3.70;;
14377;SDS011;7272;53.668;9.578;2024-03-23T05:36:41;10.93;;;3.87;;
14377;SDS011;7272;53.668;9.578;2024-03-23T05:39:43;13.07;;;5.17;;
14377;SDS011;7272;53.668;9.578;2024-03-23T05:42:44;12.93;;;4.30;;
14377;SDS011;7272;53.668;9.578;2024-03-23T05:45:45;12.33;;;4.40;;
14377;SDS011;7272;53.668;9.578;2024-03-23T05:48:46;11.40;;;3.83;;
14377;SDS011;7272;53.668;9.578;2024-03-23T05:51:47;11.20;;;4.33;;
14377;SDS011;7272;53.668;9.578;2024-03-23T05:54:49;11.93;;;4.10;;
14377;SDS011;7272;53.668;9.578;2024-03-23T05:57:50;12.17;;;4.47;;
14377;SDS011;7272;53.668;9.578;2024-03-23T06:00:56;11.60;;;4.00;;
14377;SDS011;7272;53.668;9.578;2024-03-23T06:03:58;11.63;;;3.73;;
14377;SDS011;7272;53.668;9.578;2024-03-23T06:07:01;12.83;;;3.87;;
14377;SDS011;7272;53.668;9.578;2024-03-23T06:10:03;11.00;;;3.87;;
14377;SDS011;7272;53.668;9.578;2024-03-23T06:13:05;12.93;;;4.27;;
14377;SDS011;7272;53.668;9.578;2024-03-23T06:16:07;13.90;;;4.50;;
14377;SDS011;7272;53.668;9.578;2024-03-23T06:19:08;13.90;;;4.33;;
14377;SDS011;7272;53.668;9.578;2024-03-23T06:22:09;10.60;;;3.83;;
14377;SDS011;7272;53.668;9.578;2024-03-23T06:25:10;10.97;;;3.73;;
14377;SDS011;7272;53.668;9.578;2024-03-23T06:28:12;11.20;;;4.07;;
14377;SDS011;7272;53.668;9.578;2024-03-23T06:31:14;12.83;;;4.57;;
14377;SDS011;7272;53.668;9.578;2024-03-23T06:34:16;12.27;;;4.60;;
14377;SDS011;7272;53.668;9.578;2024-03-23T06:37:17;14.13;;;4.70;;
14377;SDS011;7272;53.668;9.578;2024-03-23T06:40:19;10.93;;;4.93;;
14377;SDS011;7272;53.668;9.578;2024-03-23T06:43:20;12.87;;;3.83;;
14377;SDS011;7272;53.668;9.578;2024-03-23T06:46:21;9.60;;;3.87;;
14377;SDS011;7272;53.668;9.578;2024-03-23T06:49:22;12.20;;;3.93;;
14377;SDS011;7272;53.668;9.578;2024-03-23T06:52:23;11.90;;;4.40;;
14377;SDS011;7272;53.668;9.578;2024-03-23T06:55:25;14.77;;;4.33;;
14377;SDS011;7272;53.668;9.578;2024-03-23T06:58:27;12.57;;;4.37;;
14377;SDS011;7272;53.668;9.578;2024-03-23T07:01:28;19.67;;;4.13;;
14377;SDS011;7272;53.668;9.578;2024-03-23T07:04:29;13.60;;;4.10;;
14377;SDS011;7272;53.668;9.578;2024-03-23T07:07:30;11.43;;;5.03;;
14377;SDS011;7272;53.668;9.578;2024-03-23T07:10:32;16.60;;;5.20;;
14377;SDS011;7272;53.668;9.578;2024-03-23T07:13:33;13.77;;;4.10;;
14377;SDS011;7272;53.668;9.578;2024-03-23T07:16:34;12.00;;;4.07;;
14377;SDS011;7272;53.668;9.578;2024-03-23T07:19:36;14.40;;;4.53;;
14377;SDS011;7272;53.668;9.578;2024-03-23T07:22:37;9.33;;;3.93;;
14377;SDS011;7272;53.668;9.578;2024-03-23T07:25:39;14.23;;;4.10;;
14377;SDS011;7272;53.668;9.578;2024-03-23T07:28:40;14.97;;;4.00;;
14377;SDS011;7272;53.668;9.578;2024-03-23T07:31:44;11.97;;;4.17;;
14377;SDS011;7272;53.668;9.578;2024-03-23T07:34:44;13.93;;;4.07;;
14377;SDS011;7272;53.668;9.578;2024-03-23T07:37:46;14.73;;;4.83;;
14377;SDS011;7272;53.668;9.578;2024-03-23T07:40:48;15.80;;;4.53;;
14377;SDS011;7272;53.668;9.578;2024-03-23T07:43:50;13.27;;;4.03;;
14377;SDS011;7272;53.668;9.578;2024-03-23T07:46:51;11.70;;;4.00;;
14377;SDS011;7272;53.668;9.578;2024-03-23T07:49:52;12.87;;;4.17;;
14377;SDS011;7272;53.668;9.578;2024-03-23T07:52:53;10.80;;;4.20;;
14377;SDS011;7272;53.668;9.578;2024-03-23T07:55:55;10.63;;;4.20;;
14377;SDS011;7272;53.668;9.578;2024-03-23T07:58:58;12.47;;;4.50;;
14377;SDS011;7272;53.668;9.578;2024-03-23T08:01:59;11.10;;;3.60;;
14377;SDS011;7272;53.668;9.578;2024-03-23T08:05:00;9.23;;;4.00;;
14377;SDS011;7272;53.668;9.578;2024-03-23T08:08:01;14.60;;;4.60;;
14377;SDS011;7272;53.668;9.578;2024-03-23T08:11:03;12.93;;;4.47;;
14377;SDS011;7272;53.668;9.578;2024-03-23T08:14:05;13.50;;;3.97;;
14377;SDS011;7272;53.668;9.578;2024-03-23T08:17:06;12.60;;;4.70;;
14377;SDS011;7272;53.668;9.578;2024-03-23T08:20:07;13.67;;;3.83;;
14377;SDS011;7272;53.668;9.578;2024-03-23T08:23:09;13.53;;;4.13;;
14377;SDS011;7272;53.668;9.578;2024-03-23T08:26:11;8.80;;;3.87;;
14377;SDS011;7272;53.668;9.578;2024-03-23T08:29:13;13.13;;;4.13;;
14377;SDS011;7272;53.668;9.578;2024-03-23T08:32:14;13.37;;;3.97;;
14377;SDS011;7272;53.668;9.578;2024-03-23T08:35:15;10.40;;;3.93;;
14377;SDS011;7272;53.668;9.578;2024-03-23T08:38:16;11.83;;;3.77;;
14377;SDS011;7272;53.668;9.578;2024-03-23T08:41:18;13.00;;;3.77;;
14377;SDS011;7272;53.668;9.578;2024-03-23T08:44:19;13.67;;;4.03;;
14377;SDS011;7272;53.668;9.578;2024-03-23T08:47:21;8.83;;;3.63;;
14377;SDS011;7272;53.668;9.578;2024-03-23T08:50:22;11.23;;;4.10;;
14377;SDS011;7272;53.668;9.578;2024-03-23T08:53:23;10.87;;;4.27;;
14377;SDS011;7272;53.668;9.578;2024-03-23T08:56:25;11.00;;;3.77;;
14377;SDS011;7272;53.668;9.578;2024-03-23T08:59:26;9.30;;;3.97;;
14377;SDS011;7272;53.668;9.578;2024-03-23T09:02:27;10.27;;;3.73;;
14377;SDS011;7272;53.668;9.578;2024-03-23T09:05:28;12.20;;;3.50;;
14377;SDS011;7272;53.668;9.578;2024-03-23T09:08:31;9.77;;;3.30;;
14377;SDS011;7272;53.668;9.578;2024-03-23T09:11:32;9.40;;;3.50;;
14377;SDS011;7272;53.668;9.578;2024-03-23T09:14:33;7.67;;;2.93;;
14377;SDS011;7272;53.668;9.578;2024-03-23T09:17:35;9.47;;;3.17;;
14377;SDS011;7272;53.668;9.578;2024-03-23T09:20:36;9.83;;;2.93;;
14377;SDS011;7272;53.668;9.578;2024-03-23T09:23:37;14.20;;;4.03;;
14377;SDS011;7272;53.668;9.578;2024-03-23T09:26:39;11.10;;;3.13;;
14377;SDS011;7272;53.668;9.578;2024-03-23T09:29:40;8.13;;;3.00;;
14377;SDS011;7272;53.668;9.578;2024-03-23T09:32:42;8.97;;;3.37;;
14377;SDS011;7272;53.668;9.578;2024-03-23T09:35:43;10.37;;;2.67;;
14377;SDS011;7272;53.668;9.578;2024-03-23T09:38:45;7.23;;;3.07;;
14377;SDS011;7272;53.668;9.578;2024-03-23T09:41:47;7.83;;;3.60;;
14377;SDS011;7272;53.668;9.578;2024-03-23T09:44:48;6.37;;;2.47;;
14377;SDS011;7272;53.668;9.578;2024-03-23T09:47:51;7.57;;;2.57;;
14377;SDS011;7272;53.668;9.578;2024-03-23T09:50:53;8.37;;;3.37;;
14377;SDS011;7272;53.668;9.578;2024-03-23T09:53:54;7.40;;;2.77;;
14377;SDS011;7272;53.668;9.578;2024-03-23T09:56:56;9.43;;;2.57;;
14377;SDS011;7272;53.668;9.578;2024-03-23T09:59:57;6.70;;;2.03;;
14377;SDS011;7272;53.668;9.578;2024-03-23T10:02:58;5.30;;;2.10;;
14377;SDS011;7272;53.668;9.578;2024-03-23T10:06:02;6.30;;;2.03;;
14377;SDS011;7272;53.668;9.578;2024-03-23T10:09:09;9.60;;;2.20;;
14377;SDS011;7272;53.668;9.578;2024-03-23T10:12:19;7.27;;;2.70;;
14377;SDS011;7272;53.668;9.578;2024-03-23T10:15:21;4.57;;;2.00;;
14377;SDS011;7272;53.668;9.578;2024-03-23T10:18:23;6.33;;;2.03;;
14377;SDS011;7272;53.668;9.578;2024-03-23T10:21:25;5.43;;;2.17;;
14377;SDS011;7272;53.668;9.578;2024-03-23T10:24:26;5.03;;;2.00;;
14377;SDS011;7272;53.668;9.578;2024-03-23T10:27:28;3.40;;;1.97;;
14377;SDS011;7272;53.668;9.578;2024-03-23T10:30:29;7.77;;;2.40;;
14377;SDS011;7272;53.668;9.578;2024-03-23T10:33:31;6.83;;;2.33;;
14377;SDS011;7272;53.668;9.578;2024-03-23T10:36:32;5.00;;;2.20;;
14377;SDS011;7272;53.668;9.578;2024-03-23T10:39:36;5.23;;;2.00;;
14377;SDS011;7272;53.668;9.578;2024-03-23T10:42:39;6.93;;;1.93;;
14377;SDS011;7272;53.668;9.578;2024-03-23T10:45:40;3.83;;;1.70;;
14377;SDS011;7272;53.668;9.578;2024-03-23T10:48:41;9.10;;;2.60;;
14377;SDS011;7272;53.668;9.578;2024-03-23T10:51:43;5.43;;;2.20;;
14377;SDS011;7272;53.668;9.578;2024-03-23T10:54:46;6.57;;;2.07;;
14377;SDS011;7272;53.668;9.578;2024-03-23T10:57:52;5.87;;;2.20;;
14377;SDS011;7272;53.668;9.578;2024-03-23T11:00:55;6.17;;;1.90;;
14377;SDS011;7272;53.668;9.578;2024-03-23T11:03:56;6.77;;;2.37;;
14377;SDS011;7272;53.668;9.578;2024-03-23T11:06:57;6.00;;;2.03;;
14377;SDS011;7272;53.668;9.578;2024-03-23T11:09:59;5.47;;;2.23;;
14377;SDS011;7272;53.668;9.578;2024-03-23T11:13:21;4.13;;;1.83;;
14377;SDS011;7272;53.668;9.578;2024-03-23T11:16:23;7.70;;;2.30;;
14377;SDS011;7272;53.668;9.578;2024-03-23T11:19:34;2.40;;;1.30;;
14377;SDS011;7272;53.668;9.578;2024-03-23T11:22:40;4.23;;;1.97;;
14377;SDS011;7272;53.668;9.578;2024-03-23T11:25:42;3.13;;;1.50;;
14377;SDS011;7272;53.668;9.578;2024-03-23T11:28:44;3.47;;;1.43;;
14377;SDS011;7272;53.668;9.578;2024-03-23T11:31:45;3.10;;;1.13;;
14377;SDS011;7272;53.668;9.578;2024-03-23T11:34:47;1.47;;;1.00;;
14377;SDS011;7272;53.668;9.578;2024-03-23T11:38:00;2.70;;;1.10;;
14377;SDS011;7272;53.668;9.578;2024-03-23T11:41:02;2.33;;;1.00;;
14377;SDS011;7272;53.668;9.578;2024-03-23T11:44:14;2.80;;;1.17;;
14377;SDS011;7272;53.668;9.578;2024-03-23T11:47:16;1.83;;;1.20;;
14377;SDS011;7272;53.668;9.578;2024-03-23T11:50:20;3.07;;;1.00;;
14377;SDS011;7272;53.668;9.578;2024-03-23T11:53:22;3.20;;;1.70;;
14377;SDS011;7272;53.668;9.578;2024-03-23T11:56:24;2.90;;;1.23;;
14377;SDS011;7272;53.668;9.578;2024-03-23T11:59:35;3.33;;;1.53;;
14377;SDS011;7272;53.668;9.578;2024-03-23T12:02:37;2.67;;;1.23;;
14377;SDS011;7272;53.668;9.578;2024-03-23T12:05:38;3.27;;;1.50;;
14377;SDS011;7272;53.668;9.578;2024-03-23T12:08:39;1.80;;;0.90;;
14377;SDS011;7272;53.668;9.578;2024-03-23T12:11:41;0.87;;;0.80;;
14377;SDS011;7272;53.668;9.578;2024-03-23T12:14:42;1.97;;;0.90;;
14377;SDS011;7272;53.668;9.578;2024-03-23T12:17:44;1.87;;;0.80;;
14377;SDS011;7272;53.668;9.578;2024-03-23T12:20:45;1.23;;;0.83;;
14377;SDS011;7272;53.668;9.578;2024-03-23T12:23:46;0.80;;;0.80;;
14377;SDS011;7272;53.668;9.578;2024-03-23T12:26:49;1.07;;;0.93;;
14377;SDS011;7272;53.668;9.578;2024-03-23T12:29:51;1.00;;;0.80;;
14377;SDS011;7272;53.668;9.578;2024-03-23T12:32:52;1.10;;;1.00;;
14377;SDS011;7272;53.668;9.578;2024-03-23T12:35:53;3.73;;;1.20;;
14377;SDS011;7272;53.668;9.578;2024-03-23T12:38:54;3.03;;;1.20;;
14377;SDS011;7272;53.668;9.578;2024-03-23T12:41:56;5.03;;;1.83;;
14377;SDS011;7272;53.668;9.578;2024-03-23T12:44:58;2.67;;;1.53;;
14377;SDS011;7272;53.668;9.578;2024-03-23T12:47:59;4.30;;;2.00;;
14377;SDS011;7272;53.668;9.578;2024-03-23T12:51:00;2.30;;;1.30;;
14377;SDS011;7272;53.668;9.578;2024-03-23T12:54:01;2.60;;;1.50;;
14377;SDS011;7272;53.668;9.578;2024-03-23T12:57:03;3.73;;;1.77;;
14377;SDS011;7272;53.668;9.578;2024-03-23T13:00:05;3.70;;;1.87;;
14377;SDS011;7272;53.668;9.578;2024-03-23T13:03:13;4.03;;;1.90;;
14377;SDS011;7272;53.668;9.578;2024-03-23T13:06:15;1.30;;;0.97;;
14377;SDS011;7272;53.668;9.578;2024-03-23T13:09:18;1.57;;;0.90;;
14377;SDS011;7272;53.668;9.578;2024-03-23T13:12:19;1.47;;;1.00;;
14377;SDS011;7272;53.668;9.578;2024-03-23T13:15:21;1.13;;;0.90;;
14377;SDS011;7272;53.668;9.578;2024-03-23T13:18:23;1.37;;;0.80;;
14377;SDS011;7272;53.668;9.578;2024-03-23T13:21:23;1.40;;;0.80;;
14377;SDS011;7272;53.668;9.578;2024-03-23T13:24:25;1.63;;;1.20;;
14377;SDS011;7272;53.668;9.578;2024-03-23T13:27:26;4.50;;;1.30;;
14377;SDS011;7272;53.668;9.578;2024-03-23T13:30:28;5.93;;;1.87;;
14377;SDS011;7272;53.668;9.578;2024-03-23T13:33:29;3.07;;;1.50;;
14377;SDS011;7272;53.668;9.578;2024-03-23T13:36:32;2.13;;;1.27;;
14377;SDS011;7272;53.668;9.578;2024-03-23T13:39:33;4.30;;;1.77;;
14377;SDS011;7272;53.668;9.578;2024-03-23T13:42:35;3.60;;;1.97;;
14377;SDS011;7272;53.668;9.578;2024-03-23T13:45:36;4.30;;;1.43;;
14377;SDS011;7272;53.668;9.578;2024-03-23T13:48:38;4.00;;;1.87;;
14377;SDS011;7272;53.668;9.578;2024-03-23T13:51:41;6.07;;;1.80;;
14377;SDS011;7272;53.668;9.578;2024-03-23T13:54:47;4.33;;;1.80;;
14377;SDS011;7272;53.668;9.578;2024-03-23T13:57:48;6.03;;;1.90;;
14377;SDS011;7272;53.668;9.578;2024-03-23T14:00:52;4.90;;;1.87;;
14377;SDS011;7272;53.668;9.578;2024-03-23T14:03:53;4.63;;;1.80;;
14377;SDS011;7272;53.668;9.578;2024-03-23T14:06:56;3.13;;;1.60;;
14377;SDS011;7272;53.668;9.578;2024-03-23T14:10:02;3.30;;;1.73;;
14377;SDS011;7272;53.668;9.578;2024-03-23T14:13:03;3.93;;;1.97;;
14377;SDS011;7272;53.668;9.578;2024-03-23T14:16:05;3.53;;;1.80;;
14377;SDS011;7272;53.668;9.578;2024-03-23T14:19:07;4.27;;;1.77;;
14377;SDS011;7272;53.668;9.578;2024-03-23T14:22:08;4.17;;;1.60;;
14377;SDS011;7272;53.668;9.578;2024-03-23T14:25:09;3.20;;;1.57;;
14377;SDS011;7272;53.668;9.578;2024-03-23T14:28:11;4.40;;;2.00;;
14377;SDS011;7272;53.668;9.578;2024-03-23T14:31:15;2.47;;;1.40;;
14377;SDS011;7272;53.668;9.578;2024-03-23T14:34:16;2.00;;;1.10;;
14377;SDS011;7272;53.668;9.578;2024-03-23T14:37:17;1.10;;;1.00;;
14377;SDS011;7272;53.668;9.578;2024-03-23T14:40:18;1.37;;;1.10;;
14377;SDS011;7272;53.668;9.578;2024-03-23T14:43:19;0.70;;;0.70;;
14377;SDS011;7272;53.668;9.578;2024-03-23T14:46:22;0.60;;;0.60;;
14377;SDS011;7272;53.668;9.578;2024-03-23T14:49:23;1.20;;;0.90;;
14377;SDS011;7272;53.668;9.578;2024-03-23T14:52:24;2.87;;;1.17;;
14377;SDS011;7272;53.668;9.578;2024-03-23T14:55:25;2.20;;;1.37;;
14377;SDS011;7272;53.668;9.578;2024-03-23T14:58:26;1.13;;;1.00;;
14377;SDS011;7272;53.668;9.578;2024-03-23T15:01:28;3.07;;;1.27;;
14377;SDS011;7272;53.668;9.578;2024-03-23T15:04:29;2.03;;;1.20;;
14377;SDS011;7272;53.668;9.578;2024-03-23T15:07:31;1.83;;;1.30;;
14377;SDS011;7272;53.668;9.578;2024-03-23T15:10:32;5.47;;;1.60;;
14377;SDS011;7272;53.668;9.578;2024-03-23T15:13:34;4.00;;;1.67;;
14377;SDS011;7272;53.668;9.578;2024-03-23T15:16:36;7.03;;;2.13;;
14377;SDS011;7272;53.668;9.578;2024-03-23T15:19:37;2.50;;;1.53;;
14377;SDS011;7272;53.668;9.578;2024-03-23T15:22:39;3.30;;;1.77;;
14377;SDS011;7272;53.668;9.578;2024-03-23T15:25:40;4.17;;;1.80;;
14377;SDS011;7272;53.668;9.578;2024-03-23T15:28:41;4.13;;;2.00;;
14377;SDS011;7272;53.668;9.578;2024-03-23T15:32:03;3.87;;;1.63;;
14377;SDS011;7272;53.668;9.578;2024-03-23T15:35:05;5.00;;;1.77;;
14377;SDS011;7272;53.668;9.578;2024-03-23T15:38:07;3.37;;;1.80;;
14377;SDS011;7272;53.668;9.578;2024-03-23T15:41:09;4.27;;;1.90;;
14377;SDS011;7272;53.668;9.578;2024-03-23T15:44:11;3.67;;;1.70;;
14377;SDS011;7272;53.668;9.578;2024-03-23T15:47:13;2.67;;;1.33;;
14377;SDS011;7272;53.668;9.578;2024-03-23T15:50:14;8.67;;;2.70;;
14377;SDS011;7272;53.668;9.578;2024-03-23T15:53:15;3.87;;;1.60;;
14377;SDS011;7272;53.668;9.578;2024-03-23T15:56:16;3.17;;;1.40;;
14377;SDS011;7272;53.668;9.578;2024-03-23T15:59:18;3.30;;;1.60;;
14377;SDS011;7272;53.668;9.578;2024-03-23T16:02:19;5.13;;;1.40;;
14377;SDS011;7272;53.668;9.578;2024-03-23T16:05:20;1.83;;;1.10;;
14377;SDS011;7272;53.668;9.578;2024-03-23T16:08:22;1.60;;;1.03;;
14377;SDS011;7272;53.668;9.578;2024-03-23T16:11:23;0.80;;;0.80;;
14377;SDS011;7272;53.668;9.578;2024-03-23T16:14:25;0.90;;;0.80;;
14377;SDS011;7272;53.668;9.578;2024-03-23T16:17:26;4.53;;;1.40;;
14377;SDS011;7272;53.668;9.578;2024-03-23T16:20:27;2.40;;;1.20;;
14377;SDS011;7272;53.668;9.578;2024-03-23T16:23:28;3.47;;;1.30;;
14377;SDS011;7272;53.668;9.578;2024-03-23T16:26:30;4.00;;;1.50;;
14377;SDS011;7272;53.668;9.578;2024-03-23T16:29:31;2.07;;;1.40;;
14377;SDS011;7272;53.668;9.578;2024-03-23T16:32:33;3.73;;;1.77;;
14377;SDS011;7272;53.668;9.578;2024-03-23T16:35:35;3.17;;;1.63;;
14377;SDS011;7272;53.668;9.578;2024-03-23T16:38:37;2.57;;;1.60;;
14377;SDS011;7272;53.668;9.578;2024-03-23T16:41:39;3.47;;;1.60;;
14377;SDS011;7272;53.668;9.578;2024-03-23T16:44:40;2.07;;;1.40;;
14377;SDS011;7272;53.668;9.578;2024-03-23T16:47:43;2.70;;;1.53;;
14377;SDS011;7272;53.668;9.578;2024-03-23T16:50:45;3.90;;;1.70;;
14377;SDS011;7272;53.668;9.578;2024-03-23T16:53:47;2.70;;;1.27;;
14377;SDS011;7272;53.668;9.578;2024-03-23T16:56:48;3.90;;;1.90;;
14377;SDS011;7272;53.668;9.578;2024-03-23T16:59:49;3.10;;;1.80;;
14377;SDS011;7272;53.668;9.578;2024-03-23T17:02:51;3.93;;;1.50;;
14377;SDS011;7272;53.668;9.578;2024-03-23T17:05:52;3.27;;;1.70;;
14377;SDS011;7272;53.668;9.578;2024-03-23T17:08:54;5.43;;;2.73;;
14377;SDS011;7272;53.668;9.578;2024-03-23T17:11:56;3.80;;;1.70;;
14377;SDS011;7272;53.668;9.578;2024-03-23T17:14:57;2.60;;;1.47;;
14377;SDS011;7272;53.668;9.578;2024-03-23T17:17:59;3.17;;;1.93;;
14377;SDS011;7272;53.668;9.578;2024-03-23T17:21:01;4.90;;;1.80;;
14377;SDS011;7272;53.668;9.578;2024-03-23T17:24:03;3.97;;;2.10;;
14377;SDS011;7272;53.668;9.578;2024-03-23T17:27:05;5.77;;;2.83;;
14377;SDS011;7272;53.668;9.578;2024-03-23T17:30:07;4.47;;;2.00;;
14377;SDS011;7272;53.668;9.578;2024-03-23T17:33:09;5.60;;;2.23;;
14377;SDS011;7272;53.668;9.578;2024-03-23T17:36:10;3.33;;;2.17;;
14377;SDS011;7272;53.668;9.578;2024-03-23T17:39:11;2.97;;;1.63;;
14377;SDS011;7272;53.668;9.578;2024-03-23T17:42:13;5.13;;;2.23;;
14377;SDS011;7272;53.668;9.578;2024-03-23T17:45:15;2.93;;;1.63;;
14377;SDS011;7272;53.668;9.578;2024-03-23T17:48:17;3.60;;;1.80;;
14377;SDS011;7272;53.668;9.578;2024-03-23T17:51:18;3.40;;;1.50;;
14377;SDS011;7272;53.668;9.578;2024-03-23T17:54:19;2.87;;;1.43;;
14377;SDS011;7272;53.668;9.578;2024-03-23T17:57:20;4.20;;;1.67;;
14377;SDS011;7272;53.668;9.578;2024-03-23T18:00:21;2.67;;;1.63;;
14377;SDS011;7272;53.668;9.578;2024-03-23T18:03:23;7.73;;;2.67;;
14377;SDS011;7272;53.668;9.578;2024-03-23T18:06:24;7.33;;;3.47;;
14377;SDS011;7272;53.668;9.578;2024-03-23T18:09:25;3.60;;;1.90;;
14377;SDS011;7272;53.668;9.578;2024-03-23T18:12:26;3.93;;;1.87;;
14377;SDS011;7272;53.668;9.578;2024-03-23T18:15:27;5.87;;;2.30;;
14377;SDS011;7272;53.668;9.578;2024-03-23T18:18:29;5.80;;;2.67;;
14377;SDS011;7272;53.668;9.578;2024-03-23T18:21:30;5.00;;;2.30;;
14377;SDS011;7272;53.668;9.578;2024-03-23T18:24:31;4.17;;;2.30;;
14377;SDS011;7272;53.668;9.578;2024-03-23T18:27:33;3.20;;;2.10;;
14377;SDS011;7272;53.668;9.578;2024-03-23T18:30:34;3.80;;;2.10;;
14377;SDS011;7272;53.668;9.578;2024-03-23T18:33:36;5.57;;;2.30;;
14377;SDS011;7272;53.668;9.578;2024-03-23T18:36:40;6.47;;;2.83;;
14377;SDS011;7272;53.668;9.578;2024-03-23T18:39:42;4.23;;;2.37;;
14377;SDS011;7272;53.668;9.578;2024-03-23T18:42:43;5.30;;;2.30;;
14377;SDS011;7272;53.668;9.578;2024-03-23T18:45:45;4.97;;;2.30;;
14377;SDS011;7272;53.668;9.578;2024-03-23T18:48:47;4.33;;;1.83;;
14377;SDS011;7272;53.668;9.578;2024-03-23T18:51:48;3.50;;;1.83;;
14377;SDS011;7272;53.668;9.578;2024-03-23T18:54:49;5.30;;;2.50;;
14377;SDS011;7272;53.668;9.578;2024-03-23T18:57:51;3.50;;;2.10;;
14377;SDS011;7272;53.668;9.578;2024-03-23T19:00:54;4.73;;;1.70;;
14377;SDS011;7272;53.668;9.578;2024-03-23T19:03:57;5.30;;;2.10;;
14377;SDS011;7272;53.668;9.578;2024-03-23T19:06:58;3.83;;;1.90;;
14377;SDS011;7272;53.668;9.578;2024-03-23T19:10:00;2.40;;;1.40;;
14377;SDS011;7272;53.668;9.578;2024-03-23T19:13:02;3.37;;;1.73;;
14377;SDS011;7272;53.668;9.578;2024-03-23T19:16:04;2.37;;;1.90;;
14377;SDS011;7272;53.668;9.578;2024-03-23T19:19:06;5.80;;;1.87;;